Time;durP1;ratioP1;P1;durP2;ratioP2;P2;SDS_P1;SDS_P2;PMS_P1;PMS_P2;Temp;Humidity;BMP_temperature;BMP_pressure;BME280_temperature;BME280_humidity;BME280_pressure;Samples;Min_cycle;Max_cycle;Signal;HPM_P1;HPM_P2
2021/07/28 00:00:58;;;;;;;;;0.00;0.00;;;;;18.85;73.96;100816.41;6089491;23;45187;-77
2021/07/28 00:03:24;;;;;;;;;0.00;0.00;;;;;18.91;74.21;100832.09;6090381;23;45344;-77
2021/07/28 00:05:49;;;;;;;;;0.00;0.00;;;;;18.88;73.90;100816.34;6090003;23;45242;-78
2021/07/28 00:08:14;;;;;;;;;0.00;0.00;;;;;18.85;73.89;100832.25;6089867;23;45266;-78
2021/07/28 00:10:40;;;;;;;;;0.25;0.25;;;;;18.83;73.81;100828.75;6087833;23;45306;-77
2021/07/28 00:13:05;;;;;;;;;0.00;0.00;;;;;18.68;73.84;100812.41;6090084;23;45277;-77
2021/07/28 00:15:31;;;;;;;;;0.25;0.00;;;;;18.69;73.82;100824.72;6090107;23;45261;-79
2021/07/28 00:18:01;;;;;;;;;0.00;0.00;;;;;18.64;73.56;100823.94;6090091;23;45313;-79
2021/07/28 00:23:14;;;;;;;;;0.00;0.00;;;;;18.60;73.72;100828.44;6089923;23;45529;-79
2021/07/28 00:25:40;;;;;;;;;0.00;0.00;;;;;18.58;73.91;100816.19;6089840;23;45257;-77
2021/07/28 00:28:05;;;;;;;;;0.00;0.00;;;;;18.39;73.07;100794.66;6089766;23;45350;-77
2021/07/28 00:30:31;;;;;;;;;0.00;0.00;;;;;18.34;73.29;100786.84;6089560;23;45241;-77
2021/07/28 00:32:57;;;;;;;;;0.00;0.00;;;;;18.51;72.54;100818.09;6090212;23;45639;-77
2021/07/28 00:35:22;;;;;;;;;1.00;0.00;;;;;18.45;72.53;100811.22;6089983;23;45437;-78
2021/07/28 00:37:49;;;;;;;;;0.00;0.00;;;;;18.39;72.55;100806.06;6089423;23;45391;-78
2021/07/28 00:40:14;;;;;;;;;0.00;0.00;;;;;18.28;72.51;100789.66;6087686;23;45366;-79
2021/07/28 00:42:40;;;;;;;;;0.00;0.00;;;;;18.22;72.45;100783.59;6089843;23;45567;-78
2021/07/28 00:45:05;;;;;;;;;0.00;0.00;;;;;18.34;72.52;100803.53;6088613;23;45496;-78
2021/07/28 00:47:31;;;;;;;;;1.00;0.00;;;;;18.31;72.51;100810.63;6089587;23;45331;-78
2021/07/28 00:49:58;;;;;;;;;0.00;0.00;;;;;18.26;72.44;100799.34;6089658;23;45538;-78
2021/07/28 00:52:25;;;;;;;;;0.00;0.00;;;;;18.25;72.13;100801.09;6090082;23;45342;-78
2021/07/28 00:54:50;;;;;;;;;0.00;0.00;;;;;18.27;72.34;100808.97;6089831;23;45529;-78
2021/07/28 00:57:16;;;;;;;;;0.50;0.00;;;;;18.13;72.10;100789.06;6089038;23;45301;-78
2021/07/28 00:59:41;;;;;;;;;0.00;0.00;;;;;18.23;72.18;100809.03;6089601;23;45314;-78
2021/07/28 01:02:08;;;;;;;;;0.00;0.00;;;;;18.13;71.89;100798.75;6089673;23;45542;-78
2021/07/28 01:04:33;;;;;;;;;0.00;0.00;;;;;18.22;72.14;100819.63;6090081;23;45302;-78
2021/07/28 01:06:59;;;;;;;;;0.00;0.00;;;;;18.03;72.47;100788.38;6089211;23;46103;-78
2021/07/28 01:09:28;;;;;;;;;1.00;0.00;;;;;18.19;72.54;100819.72;6089186;23;45316;-78
2021/07/28 01:11:54;;;;;;;;;0.00;0.00;;;;;18.17;72.59;100819.75;6088781;23;45488;-78
2021/07/28 01:14:21;;;;;;;;;0.00;0.00;;;;;18.18;72.30;100815.31;6089503;23;45213;-78
2021/07/28 01:16:47;;;;;;;;;0.00;0.00;;;;;17.76;72.18;100761.75;6089247;23;45253;-78
2021/07/28 01:19:18;;;;;;;;;0.00;0.00;;;;;18.10;72.17;100819.00;6088556;23;45355;-78
2021/07/28 01:21:47;;;;;;;;;0.00;0.00;;;;;17.95;71.92;100793.81;6089630;23;45306;-78
2021/07/28 01:24:14;;;;;;;;;0.00;0.00;;;;;17.92;72.30;100799.13;6089474;23;45302;-78
2021/07/28 01:26:39;;;;;;;;;0.00;0.00;;;;;17.88;72.49;100794.00;6088892;23;45327;-78
2021/07/28 01:29:06;;;;;;;;;0.00;0.00;;;;;17.90;72.09;100806.22;6089075;23;45295;-78
2021/07/28 01:31:40;;;;;;;;;0.00;0.00;;;;;17.86;72.34;100799.28;6089661;23;45300;-78
2021/07/28 01:34:08;;;;;;;;;0.00;0.00;;;;;17.83;72.08;100794.94;6089538;23;45459;-77
2021/07/28 01:36:34;;;;;;;;;0.00;0.00;;;;;17.85;72.03;100800.16;6089205;23;45296;-77
2021/07/28 01:39:00;;;;;;;;;0.00;0.00;;;;;17.63;72.34;100770.78;6089127;23;45231;-78
2021/07/28 01:41:26;;;;;;;;;0.75;0.00;;;;;17.94;72.16;100825.44;6088788;23;45411;-78
2021/07/28 01:43:51;;;;;;;;;0.00;0.00;;;;;17.90;72.55;100819.38;6089607;23;45363;-78
2021/07/28 01:46:18;;;;;;;;;0.00;0.00;;;;;17.88;72.48;100826.44;6089071;23;45783;-78
2021/07/28 01:48:43;;;;;;;;;0.00;0.00;;;;;17.85;72.11;100823.88;6089252;23;45370;-78
2021/07/28 01:51:09;;;;;;;;;0.00;0.00;;;;;17.86;72.73;100830.88;6088462;23;45400;-79
2021/07/28 01:53:35;;;;;;;;;1.50;0.00;;;;;17.91;72.24;100826.38;6088676;23;45388;-79
2021/07/28 01:56:00;;;;;;;;;0.00;0.00;;;;;17.79;71.92;100822.22;6088733;23;46395;-78
2021/07/28 01:58:26;;;;;;;;;0.00;0.00;;;;;17.85;72.14;100831.75;6088117;23;45368;-78
2021/07/28 02:00:52;;;;;;;;;0.00;0.00;;;;;17.79;72.29;100826.66;6088372;23;45324;-78
2021/07/28 02:03:17;;;;;;;;;0.00;0.00;;;;;17.86;72.20;100834.38;6089353;23;45538;-78
2021/07/28 02:05:44;;;;;;;;;0.00;0.00;;;;;17.90;72.27;100834.31;6089009;23;45303;-78
2021/07/28 02:08:15;;;;;;;;;0.00;0.00;;;;;17.96;71.87;100835.06;6089069;23;45264;-78
2021/07/28 02:10:46;;;;;;;;;0.00;0.00;;;;;17.88;71.78;100817.69;6088289;23;45259;-78
2021/07/28 02:13:13;;;;;;;;;0.00;0.00;;;;;18.00;71.53;100835.00;6089370;23;45261;-77
2021/07/28 02:15:38;;;;;;;;;0.00;0.00;;;;;17.95;70.94;100835.94;6088836;23;45304;-78
2021/07/28 02:18:05;;;;;;;;;0.00;0.00;;;;;17.86;71.00;100842.28;6088870;23;45635;-78
2021/07/28 02:20:31;;;;;;;;;0.00;0.00;;;;;17.70;71.35;100815.38;6089041;23;45444;-78
2021/07/28 02:22:57;;;;;;;;;0.00;0.00;;;;;17.77;71.18;100834.59;6089329;23;45256;-78
2021/07/28 02:25:23;;;;;;;;;0.00;0.00;;;;;17.80;71.32;100831.00;6086688;23;45280;-78
2021/07/28 02:27:48;;;;;;;;;0.00;0.00;;;;;17.86;71.46;100846.69;6088780;23;45368;-78
2021/07/28 02:30:16;;;;;;;;;0.00;0.00;;;;;17.35;71.32;100754.69;6088980;23;45387;-78
2021/07/28 02:32:42;;;;;;;;;0.75;0.00;;;;;17.87;71.10;100843.16;6089186;23;45179;-78
2021/07/28 02:35:09;;;;;;;;;0.00;0.00;;;;;17.41;70.71;100766.84;6088616;23;45323;-78
2021/07/28 02:37:34;;;;;;;;;0.00;0.00;;;;;17.64;70.67;100801.50;6088707;23;45417;-78
2021/07/28 02:40:00;;;;;;;;;0.00;0.00;;;;;17.88;70.01;100836.97;6088341;23;45249;-77
2021/07/28 02:42:26;;;;;;;;;0.00;0.00;;;;;17.78;69.96;100817.88;6089542;23;45336;-78
2021/07/28 02:44:52;;;;;;;;;0.00;0.00;;;;;17.89;69.74;100841.38;6088522;23;45294;-78
2021/07/28 02:47:17;;;;;;;;;0.00;0.00;;;;;17.73;69.82;100815.34;6088787;23;45329;-78
2021/07/28 02:49:42;;;;;;;;;0.00;0.00;;;;;17.93;69.54;100840.41;6088870;23;45382;-78
2021/07/28 02:52:08;;;;;;;;;0.00;0.00;;;;;17.74;69.66;100805.69;6088959;23;45330;-78
2021/07/28 02:54:33;;;;;;;;;0.00;0.00;;;;;17.93;69.13;100853.56;6088325;23;45765;-78
2021/07/28 02:56:58;;;;;;;;;2.50;0.00;;;;;17.60;69.45;100790.16;6088888;23;45350;-77
2021/07/28 02:59:24;;;;;;;;;0.00;0.00;;;;;17.97;69.77;100844.69;6088775;23;45261;-77
2021/07/28 03:01:50;;;;;;;;;0.00;0.00;;;;;17.72;68.77;100818.88;6089114;23;45332;-77
2021/07/28 03:04:16;;;;;;;;;0.00;0.00;;;;;17.91;68.96;100855.34;6088678;23;45913;-77
2021/07/28 03:06:41;;;;;;;;;0.00;0.00;;;;;17.87;69.16;100858.94;6086851;23;45355;-77
2021/07/28 03:09:07;;;;;;;;;0.00;0.00;;;;;17.33;68.98;100774.00;6090246;23;45344;-77
2021/07/28 03:11:33;;;;;;;;;0.00;0.00;;;;;17.56;69.24;100815.69;6090799;23;45427;-77
2021/07/28 03:13:59;;;;;;;;;0.50;0.00;;;;;17.86;68.68;100854.59;6090380;23;45887;-77
2021/07/28 03:16:24;;;;;;;;;0.00;0.00;;;;;17.80;68.90;100837.13;6090542;23;45417;-77
2021/07/28 03:18:50;;;;;;;;;0.00;0.00;;;;;17.97;68.82;100863.13;6090194;23;45321;-77
2021/07/28 03:21:15;;;;;;;;;0.00;0.00;;;;;17.94;68.44;100862.31;6090492;23;45534;-77
2021/07/28 03:23:41;;;;;;;;;0.00;0.00;;;;;17.84;67.98;100853.75;6089775;23;45230;-76
2021/07/28 03:26:06;;;;;;;;;0.00;0.00;;;;;17.93;67.79;100865.84;6090244;23;45329;-78
2021/07/28 03:28:31;;;;;;;;;0.00;0.00;;;;;17.87;67.98;100864.22;6090541;23;45281;-76
2021/07/28 03:30:57;;;;;;;;;0.00;0.00;;;;;17.85;68.06;100864.25;6090822;23;45454;-79
2021/07/28 03:33:22;;;;;;;;;0.75;0.00;;;;;17.88;68.51;100863.31;6089907;23;45964;-79
2021/07/28 03:35:48;;;;;;;;;0.00;0.00;;;;;17.85;68.15;100863.38;6089959;23;45786;-78
2021/07/28 03:38:14;;;;;;;;;0.00;0.00;;;;;17.91;68.64;100865.88;6090107;23;45222;-76
2021/07/28 03:40:39;;;;;;;;;0.00;0.00;;;;;17.90;68.08;100858.00;6090899;23;45282;-77
2021/07/28 03:43:05;;;;;;;;;0.00;0.00;;;;;17.95;68.30;100869.34;6090166;23;45398;-77
2021/07/28 03:45:31;;;;;;;;;0.00;0.00;;;;;17.93;67.58;100865.84;6090355;23;45402;-77
2021/07/28 03:47:56;;;;;;;;;0.00;0.00;;;;;17.93;67.86;100864.09;6090214;23;45315;-76
2021/07/28 03:50:22;;;;;;;;;0.00;0.00;;;;;17.84;68.11;100861.63;6090496;23;45475;-78
2021/07/28 03:52:47;;;;;;;;;0.00;0.00;;;;;17.92;67.45;100870.25;6089645;23;46626;-78
2021/07/28 03:55:13;;;;;;;;;0.25;0.00;;;;;17.80;67.43;100857.34;6089822;23;45348;-78
2021/07/28 03:57:38;;;;;;;;;0.00;0.00;;;;;17.88;67.12;100870.34;6090292;23;45859;-78
2021/07/28 04:00:05;;;;;;;;;0.00;0.00;;;;;17.84;66.95;100872.16;6090540;23;45676;-78
2021/07/28 04:02:31;;;;;;;;;0.00;0.00;;;;;17.80;66.98;100860.81;6088227;23;46108;-78
2021/07/28 04:04:56;;;;;;;;;0.00;0.00;;;;;17.78;66.74;100865.25;6089928;23;45281;-78
2021/07/28 04:07:21;;;;;;;;;0.00;0.00;;;;;17.80;66.91;100860.81;6089626;23;45329;-78
2021/07/28 04:09:47;;;;;;;;;0.00;0.00;;;;;17.86;66.66;100883.56;6090147;23;45269;-77
2021/07/28 04:12:12;;;;;;;;;0.00;0.00;;;;;17.81;67.36;100877.50;6088019;23;48215;-78
2021/07/28 04:14:38;;;;;;;;;0.00;0.00;;;;;17.39;66.67;100809.88;6089484;23;45292;-78
2021/07/28 04:17:03;;;;;;;;;2.75;0.75;;;;;17.80;67.00;100883.66;6089736;23;45445;-78
2021/07/28 04:19:29;;;;;;;;;0.00;0.00;;;;;17.83;66.61;100884.47;6089330;23;45227;-78
2021/07/28 04:21:54;;;;;;;;;0.00;0.00;;;;;17.82;66.70;100880.09;6088870;23;45262;-78
2021/07/28 04:24:20;;;;;;;;;0.00;0.00;;;;;17.85;66.18;100895.84;6089759;23;45289;-78
2021/07/28 04:26:45;;;;;;;;;1.50;0.75;;;;;17.79;65.77;100895.94;6089703;23;45303;-78
2021/07/28 04:29:10;;;;;;;;;0.75;0.00;;;;;17.71;65.74;100895.25;6089910;23;45308;-78
2021/07/28 04:31:36;;;;;;;;;0.00;0.00;;;;;17.70;66.08;100894.38;6088968;23;45610;-78
2021/07/28 04:34:01;;;;;;;;;0.00;0.00;;;;;17.72;66.15;100894.34;6087415;23;45497;-78
2021/07/28 04:36:26;;;;;;;;;0.00;0.00;;;;;17.67;65.83;100893.56;6088848;23;45277;-78
2021/07/28 04:38:52;;;;;;;;;0.00;0.00;;;;;17.62;65.66;100896.28;6089054;23;45258;-78
2021/07/28 04:41:17;;;;;;;;;0.00;0.00;;;;;17.67;66.16;100897.06;6089556;23;45660;-78
2021/07/28 04:43:42;;;;;;;;;0.00;0.00;;;;;17.59;65.33;100885.81;6089493;23;45387;-78
2021/07/28 04:46:08;;;;;;;;;0.00;0.00;;;;;17.65;66.00;100900.63;6089597;23;45626;-78
2021/07/28 04:48:33;;;;;;;;;0.00;0.00;;;;;17.67;65.27;100901.47;6089544;23;45267;-78
2021/07/28 04:50:59;;;;;;;;;0.00;0.00;;;;;17.68;65.17;100895.28;6088836;23;45920;-78
2021/07/28 04:53:31;;;;;;;;;0.00;0.00;;;;;17.67;65.73;100897.06;6089139;23;45351;-78
2021/07/28 04:55:57;;;;;;;;;0.00;0.00;;;;;17.64;65.42;100891.84;6089812;23;45239;-78
2021/07/28 04:58:24;;;;;;;;;0.00;0.00;;;;;17.72;65.19;100892.59;6089778;23;45245;-78
2021/07/28 05:00:50;;;;;;;;;0.00;0.00;;;;;17.75;65.59;100896.91;6088523;23;46127;-78
2021/07/28 05:03:16;;;;;;;;;0.00;0.00;;;;;17.76;65.73;100903.06;6089197;23;45308;-78
2021/07/28 05:05:41;;;;;;;;;0.00;0.00;;;;;17.74;65.44;100900.47;6088502;23;45297;-78
2021/07/28 05:08:07;;;;;;;;;0.00;0.00;;;;;17.79;65.18;100903.84;6088010;23;45330;-78
2021/07/28 05:10:33;;;;;;;;;0.00;0.00;;;;;17.69;65.34;100884.75;6088980;23;46126;-78
2021/07/28 05:12:58;;;;;;;;;0.00;0.00;;;;;17.84;65.29;100904.66;6088312;23;45372;-78
2021/07/28 05:15:24;;;;;;;;;0.00;0.00;;;;;17.86;65.16;100909.88;6089261;23;45313;-76
2021/07/28 05:17:49;;;;;;;;;0.00;0.00;;;;;17.85;65.05;100906.38;6089608;23;45258;-76
2021/07/28 05:20:16;;;;;;;;;0.00;0.00;;;;;17.90;65.52;100915.94;6088222;23;46118;-77
2021/07/28 05:22:42;;;;;;;;;0.00;0.00;;;;;17.88;65.40;100913.34;6088040;23;45313;-76
2021/07/28 05:25:08;;;;;;;;;0.00;0.00;;;;;17.89;65.52;100916.84;6088647;23;45674;-77
2021/07/28 05:27:33;;;;;;;;;0.00;0.00;;;;;17.90;64.59;100911.56;6089506;23;45409;-77
2021/07/28 05:30:00;;;;;;;;;1.00;0.00;;;;;17.98;64.56;100911.41;6088954;23;46200;-78
2021/07/28 05:32:25;;;;;;;;;0.00;0.00;;;;;18.05;64.88;100912.16;6088084;23;45367;-77
2021/07/28 05:34:51;;;;;;;;;0.00;0.00;;;;;18.01;64.63;100913.13;6087883;23;45536;-78
2021/07/28 05:37:18;;;;;;;;;0.00;0.00;;;;;18.05;64.33;100918.28;6089391;23;45405;-77
2021/07/28 05:39:43;;;;;;;;;0.00;0.00;;;;;17.96;64.43;100907.94;6088674;23;46348;-79
2021/07/28 05:42:09;;;;;;;;;0.00;0.00;;;;;18.02;64.70;100922.75;6087896;23;45325;-78
2021/07/28 05:44:34;;;;;;;;;0.00;0.00;;;;;17.95;64.21;100907.06;6086706;23;45384;-79
2021/07/28 05:46:59;;;;;;;;;0.00;0.00;;;;;17.81;64.73;100888.03;6088632;23;45347;-79
2021/07/28 05:49:25;;;;;;;;;0.00;0.00;;;;;17.93;64.58;100900.97;6088079;23;45216;-77
2021/07/28 05:51:50;;;;;;;;;0.00;0.00;;;;;17.49;64.34;100832.47;6086711;23;45325;-80
2021/07/28 05:54:16;;;;;;;;;0.00;0.00;;;;;17.96;64.48;100924.63;6087721;23;45618;-80
2021/07/28 05:56:41;;;;;;;;;0.00;0.00;;;;;17.95;64.87;100922.84;6087947;23;45245;-79
2021/07/28 05:59:06;;;;;;;;;0.00;0.00;;;;;18.00;64.75;100919.28;6086956;23;46118;-77
2021/07/28 06:01:31;;;;;;;;;0.00;0.00;;;;;18.00;64.75;100930.66;6087015;23;45247;-77
2021/07/28 06:03:57;;;;;;;;;0.00;0.00;;;;;17.95;64.65;100919.38;6087373;23;45249;-76
2021/07/28 06:06:26;;;;;;;;;0.00;0.00;;;;;17.90;64.32;100915.94;6088307;23;45313;-76
2021/07/28 06:08:51;;;;;;;;;1.00;0.00;;;;;18.00;64.50;100932.47;6087228;23;46242;-76
2021/07/28 06:11:17;;;;;;;;;0.00;0.00;;;;;18.10;64.19;100940.16;6085076;23;45852;-77
2021/07/28 06:13:42;;;;;;;;;0.00;0.00;;;;;17.94;64.41;100925.50;6088178;23;45281;-76
2021/07/28 06:16:07;;;;;;;;;0.00;0.00;;;;;17.88;65.00;100915.97;6088827;23;45580;-76
2021/07/28 06:18:33;;;;;;;;;0.00;0.00;;;;;18.01;64.75;100931.56;6086981;23;45325;-77
2021/07/28 06:20:59;;;;;;;;;0.00;0.00;;;;;17.94;64.90;100922.88;6086341;23;45337;-78
2021/07/28 06:23:24;;;;;;;;;0.00;0.00;;;;;18.01;64.54;100944.72;6087674;23;45353;-77
2021/07/28 06:25:50;;;;;;;;;0.00;0.00;;;;;17.73;65.14;100910.09;6087295;23;45396;-79
2021/07/28 06:28:15;;;;;;;;;0.00;0.00;;;;;17.92;64.83;100954.50;6087605;23;45401;-77
2021/07/28 06:30:40;;;;;;;;;0.00;0.00;;;;;17.86;64.87;100944.13;6087088;23;45401;-78
2021/07/28 06:33:06;;;;;;;;;0.00;0.00;;;;;17.87;65.40;100948.47;6086617;23;45348;-79
2021/07/28 06:35:31;;;;;;;;;0.00;0.00;;;;;17.86;65.33;100928.31;6087545;23;45350;-77
2021/07/28 06:37:56;;;;;;;;;0.00;0.00;;;;;18.02;65.14;100947.31;6087302;23;45368;-77
2021/07/28 06:40:22;;;;;;;;;0.00;0.00;;;;;18.08;65.18;100951.59;6087219;23;45435;-81
2021/07/28 06:42:47;;;;;;;;;0.00;0.00;;;;;18.18;64.57;100953.19;6087540;23;46116;-77
2021/07/28 06:45:13;;;;;;;;;0.00;0.00;;;;;18.08;64.56;100933.16;6087969;23;45385;-77
2021/07/28 06:47:38;;;;;;;;;0.00;0.00;;;;;18.17;64.65;100946.19;6086093;23;45459;-80
2021/07/28 06:50:04;;;;;;;;;0.50;0.50;;;;;18.28;64.68;100961.75;6085338;23;45351;-77
2021/07/28 06:52:29;;;;;;;;;0.00;0.00;;;;;18.33;64.32;100962.56;6085109;23;45405;-81
2021/07/28 06:54:55;;;;;;;;;0.00;0.00;;;;;18.43;64.42;100959.72;6087117;23;45292;-78
2021/07/28 06:57:20;;;;;;;;;0.00;0.00;;;;;18.49;64.45;100939.38;6083486;23;46871;-80
2021/07/28 06:59:45;;;;;;;;;0.00;0.00;;;;;18.42;64.02;100934.28;6085313;23;45390;-80
2021/07/28 07:02:11;;;;;;;;;0.50;0.00;;;;;18.40;64.03;100936.94;6087426;23;45736;-78
2021/07/28 07:04:36;;;;;;;;;2.00;0.00;;;;;18.16;64.81;100906.72;6087678;23;45309;-80
2021/07/28 07:07:02;;;;;;;;;0.00;0.00;;;;;18.26;64.38;100941.63;6086993;23;45512;-79
2021/07/28 07:09:27;;;;;;;;;0.00;0.00;;;;;18.27;64.41;100940.72;6087308;23;45320;-79
2021/07/28 07:11:52;;;;;;;;;0.00;0.00;;;;;18.39;64.37;100968.59;6085771;23;45186;-79
2021/07/28 07:14:18;;;;;;;;;1.00;0.00;;;;;18.45;64.74;100965.84;6072861;23;45676;-79
2021/07/28 07:16:43;;;;;;;;;0.00;0.00;;;;;18.61;64.53;100967.25;6083651;23;46207;-79
2021/07/28 07:19:08;;;;;;;;;0.00;0.00;;;;;18.69;64.80;100966.22;6087270;23;45273;-79
2021/07/28 07:21:34;;;;;;;;;0.00;0.00;;;;;18.68;64.07;100959.22;6087626;23;45246;-79
2021/07/28 07:23:59;;;;;;;;;0.00;0.00;;;;;18.81;64.03;100975.63;6087027;23;45617;-79
2021/07/28 07:26:24;;;;;;;;;0.00;0.00;;;;;18.65;63.35;100948.72;6086774;23;46338;-80
2021/07/28 07:28:49;;;;;;;;;0.00;0.00;;;;;18.76;63.52;100970.44;6085250;23;45254;-80
2021/07/28 07:31:15;;;;;;;;;0.00;0.00;;;;;18.68;62.89;100970.59;6086961;23;45293;-80
2021/07/28 07:33:41;;;;;;;;;0.00;0.00;;;;;18.61;63.14;100961.09;6088092;23;45322;-80
2021/07/28 07:36:11;;;;;;;;;0.00;0.00;;;;;18.68;63.38;100965.34;6086758;23;46463;-80
2021/07/28 07:38:37;;;;;;;;;0.00;0.00;;;;;18.65;63.79;100956.66;6086778;23;45543;-79
2021/07/28 07:41:04;;;;;;;;;0.00;0.00;;;;;18.74;63.94;100966.97;6087332;23;45411;-79
2021/07/28 07:43:30;;;;;;;;;0.00;0.00;;;;;18.61;63.21;100947.91;6087368;23;45258;-79
2021/07/28 07:45:56;;;;;;;;;0.00;0.00;;;;;18.81;63.35;100973.84;6087310;23;45337;-81
2021/07/28 07:48:24;;;;;;;;;0.00;0.00;;;;;18.79;63.27;100957.19;6087781;23;45453;-80
2021/07/28 07:50:50;;;;;;;;;0.00;0.00;;;;;18.87;62.86;100952.59;6086359;23;45380;-81
2021/07/28 07:53:15;;;;;;;;;0.00;0.00;;;;;19.14;62.10;100980.19;6084969;23;45395;-80
2021/07/28 07:55:40;;;;;;;;;0.00;0.00;;;;;18.79;62.63;100911.50;6087781;23;46082;-80
2021/07/28 07:58:06;;;;;;;;;0.00;0.00;;;;;19.26;62.07;100979.03;6087598;23;45365;-79
2021/07/28 08:00:31;;;;;;;;;0.00;0.00;;;;;19.33;62.24;100978.00;6088668;23;45407;-78
2021/07/28 08:02:57;;;;;;;;;0.25;0.00;;;;;19.30;61.21;100965.75;6089021;23;45305;-78
2021/07/28 08:05:22;;;;;;;;;0.00;0.00;;;;;19.24;61.57;100972.00;6087173;23;46057;-79
2021/07/28 08:07:47;;;;;;;;;0.00;0.00;;;;;19.22;62.04;100968.56;6088209;23;45391;-81
2021/07/28 08:10:13;;;;;;;;;0.00;0.00;;;;;19.27;62.10;100963.19;6087177;23;45250;-80
2021/07/28 08:12:41;;;;;;;;;0.00;0.00;;;;;19.30;61.97;100946.41;6088746;23;45369;-78
2021/07/28 08:15:07;;;;;;;;;0.00;0.00;;;;;19.42;62.05;100953.13;6088615;23;46062;-81
2021/07/28 08:17:32;;;;;;;;;0.00;0.00;;;;;19.50;61.54;100977.56;6087508;23;45466;-79
2021/07/28 08:20:00;;;;;;;;;0.00;0.00;;;;;19.42;61.71;100964.53;6088649;23;45779;-80
2021/07/28 08:22:25;;;;;;;;;0.00;0.00;;;;;19.42;61.05;100974.25;6086954;23;45423;-80
2021/07/28 08:24:51;;;;;;;;;0.00;0.00;;;;;18.78;60.81;100876.38;6087112;23;45686;-81
2021/07/28 08:27:16;;;;;;;;;1.00;0.00;;;;;19.18;59.60;100966.91;6087620;23;45377;-79
2021/07/28 08:29:41;;;;;;;;;0.00;0.00;;;;;19.16;59.04;100971.34;6088735;23;45759;-81
2021/07/28 08:32:07;;;;;;;;;0.00;0.00;;;;;19.20;59.06;100965.09;6087929;23;45706;-80
2021/07/28 08:34:33;;;;;;;;;0.00;0.00;;;;;19.34;58.52;100964.75;6088157;23;45376;-80
2021/07/28 08:36:59;;;;;;;;;0.00;0.00;;;;;19.29;57.83;100949.94;6088272;23;45368;-78
2021/07/28 08:39:24;;;;;;;;;0.00;0.00;;;;;19.36;57.82;100952.38;6088754;23;45383;-80
2021/07/28 08:41:51;;;;;;;;;0.00;0.00;;;;;19.53;57.05;100952.84;6088449;23;45316;-81
2021/07/28 08:44:19;;;;;;;;;0.00;0.00;;;;;19.67;56.65;100963.94;6087410;23;45384;-80
2021/07/28 08:46:44;;;;;;;;;0.00;0.00;;;;;19.57;56.99;100925.50;6088043;23;45418;-79
2021/07/28 08:49:13;;;;;;;;;0.00;0.00;;;;;19.97;55.76;100960.53;6087027;23;45391;-79
2021/07/28 08:51:42;;;;;;;;;0.00;0.00;;;;;19.94;55.77;100955.31;6088729;23;45430;-79
2021/07/28 08:54:07;;;;;;;;;0.00;0.00;;;;;20.08;55.36;100965.53;6087825;23;46395;-80
2021/07/28 08:56:39;;;;;;;;;0.00;0.00;;;;;20.11;55.21;100973.38;6087732;23;45385;-78
2021/07/28 08:59:04;;;;;;;;;0.00;0.00;;;;;19.87;53.64;100926.44;6087925;23;45309;-80
2021/07/28 09:01:29;;;;;;;;;0.00;0.00;;;;;20.01;54.51;100962.22;6087092;23;45311;-79
2021/07/28 09:03:55;;;;;;;;;0.00;0.00;;;;;20.10;54.59;100969.00;6087764;23;45372;-80
2021/07/28 09:06:29;;;;;;;;;2.00;0.00;;;;;19.98;55.29;100949.91;6087359;23;45341;-80
2021/07/28 09:09:00;;;;;;;;;0.00;0.00;;;;;20.09;55.50;100962.00;6088241;23;45391;-80
2021/07/28 09:11:26;;;;;;;;;0.00;0.00;;;;;20.21;55.91;100966.91;6085307;23;45464;-80
2021/07/28 09:13:55;;;;;;;;;0.00;0.00;;;;;19.87;55.07;100883.28;6088068;23;45324;-78
2021/07/28 09:16:21;;;;;;;;;0.00;0.00;;;;;20.22;54.69;100939.56;6087974;23;45321;-78
2021/07/28 09:18:51;;;;;;;;;0.00;0.00;;;;;20.51;55.04;100969.59;6086347;23;45384;-80
2021/07/28 09:21:19;;;;;;;;;0.00;0.00;;;;;20.60;54.73;100967.59;6087654;23;45344;-78
2021/07/28 09:23:48;;;;;;;;;0.00;0.00;;;;;20.58;53.18;100977.34;6087985;23;45305;-79
2021/07/28 09:26:30;;;;;;;;;0.00;0.00;;;;;20.54;52.83;100968.63;6087433;23;45447;-79
2021/07/28 09:29:12;;;;;;;;;0.00;0.00;;;;;20.49;52.00;100967.91;6087632;23;45329;-79
2021/07/28 09:31:46;;;;;;;;;0.00;0.00;;;;;20.30;52.46;100946.44;6087489;23;45591;-79
2021/07/28 09:34:18;;;;;;;;;0.00;0.00;;;;;20.54;51.44;100970.41;6086637;23;45344;-80
2021/07/28 09:36:43;;;;;;;;;0.00;0.00;;;;;20.64;52.37;100969.22;6087663;23;45362;-80
2021/07/28 09:39:08;;;;;;;;;0.00;0.00;;;;;20.79;51.63;100975.81;6087312;23;45392;-81
2021/07/28 09:41:38;;;;;;;;;0.00;0.00;;;;;20.82;52.01;100972.25;6087162;23;45380;-82
2021/07/28 09:44:04;;;;;;;;;0.00;0.00;;;;;20.73;52.40;100968.94;6086332;23;46619;-79
2021/07/28 09:46:37;;;;;;;;;0.00;0.00;;;;;20.51;52.36;100934.34;6087364;23;45328;-81
2021/07/28 09:49:05;;;;;;;;;0.00;0.00;;;;;20.66;51.80;100977.09;6086964;23;45585;-81
2021/07/28 09:51:34;;;;;;;;;0.00;0.00;;;;;20.57;51.75;100975.59;6087045;23;45330;-79
2021/07/28 09:54:08;;;;;;;;;0.00;0.00;;;;;20.41;52.63;100970.78;6085517;23;46370;-79
2021/07/28 09:56:50;;;;;;;;;0.00;0.00;;;;;20.42;52.86;100975.16;6086903;23;45400;-79
2021/07/28 09:59:16;;;;;;;;;0.00;0.00;;;;;20.48;53.11;100984.69;6086785;23;45312;-80
2021/07/28 10:01:44;;;;;;;;;0.00;0.00;;;;;20.29;52.74;100960.56;6086637;23;45646;-80
2021/07/28 10:04:11;;;;;;;;;0.00;0.00;;;;;20.46;52.78;100983.88;6087177;23;46112;-80
2021/07/28 10:06:39;;;;;;;;;0.00;0.00;;;;;20.46;52.91;100966.22;6086880;23;45280;-79
2021/07/28 10:09:10;;;;;;;;;0.00;0.00;;;;;20.68;52.61;100978.81;6086156;23;45340;-80
2021/07/28 10:11:39;;;;;;;;;0.00;0.00;;;;;20.73;52.72;100960.13;6085460;23;45507;-80
2021/07/28 10:14:08;;;;;;;;;2.00;0.00;;;;;20.97;52.77;100962.97;6085726;23;46381;-81
2021/07/28 10:16:33;;;;;;;;;0.00;0.00;;;;;21.23;52.40;100978.00;6086478;23;45359;-80
2021/07/28 10:19:03;;;;;;;;;0.50;0.00;;;;;21.07;51.24;100935.28;6086111;23;45266;-79
2021/07/28 10:21:35;;;;;;;;;0.00;0.00;;;;;21.02;51.00;100948.66;6086339;23;45372;-79
2021/07/28 10:24:02;;;;;;;;;0.00;0.00;;;;;21.23;51.09;100969.22;6086150;23;45510;-80
2021/07/28 10:26:32;;;;;;;;;0.00;0.00;;;;;21.30;51.31;100969.88;6086575;23;45471;-78
2021/07/28 10:28:58;;;;;;;;;0.00;0.00;;;;;21.13;50.46;100942.16;6084897;23;45663;-81
2021/07/28 10:31:28;;;;;;;;;0.00;0.00;;;;;21.18;50.50;100942.03;6085272;23;45238;-78
2021/07/28 10:33:55;;;;;;;;;0.00;0.00;;;;;21.41;51.71;100969.53;6085308;23;47744;-78
2021/07/28 10:36:42;;;;;;;;;0.00;0.00;;;;;21.48;51.16;100969.28;6086599;23;45329;-79
2021/07/28 10:39:08;;;;;;;;;0.00;0.00;;;;;21.47;50.59;100962.22;6087777;23;45309;-80
2021/07/28 10:41:41;;;;;;;;;0.00;0.00;;;;;21.53;51.32;100958.50;6088088;23;45268;-79
2021/07/28 10:44:12;;;;;;;;;0.00;0.00;;;;;21.54;50.92;100969.97;6084344;23;48039;-82
2021/07/28 10:46:52;;;;;;;;;0.00;0.00;;;;;21.59;50.39;100960.09;6085553;23;45360;-80
2021/07/28 10:49:38;;;;;;;;;0.00;0.00;;;;;21.55;50.39;100963.75;6087995;23;45378;-79
2021/07/28 10:52:05;;;;;;;;;0.00;0.00;;;;;21.42;50.48;100924.47;6153248;23;45251;-82
2021/07/28 10:54:49;;;;;;;;;0.00;0.00;;;;;21.82;50.17;100961.97;6179267;23;46100;-80
2021/07/28 10:57:33;;;;;;;;;0.00;0.00;;;;;21.89;49.84;100958.19;6178301;23;45398;-81
2021/07/28 10:59:59;;;;;;;;;0.00;0.00;;;;;21.66;49.43;100927.19;6153659;23;45455;-80
2021/07/28 11:02:44;;;;;;;;;0.00;0.00;;;;;21.77;49.35;100942.72;6176427;23;45665;-84
2021/07/28 11:05:20;;;;;;;;;0.00;0.00;;;;;21.73;49.08;100964.91;6175394;23;46807;-79
2021/07/28 11:08:07;;;;;;;;;0.00;0.00;;;;;21.71;49.61;100967.63;6177681;23;45406;-80
2021/07/28 11:10:39;;;;;;;;;0.00;0.00;;;;;21.68;49.30;100970.38;6177920;23;45510;-80
2021/07/28 11:13:09;;;;;;;;;0.00;0.00;;;;;21.65;48.58;100965.16;6178850;23;45371;-79
2021/07/28 11:15:36;;;;;;;;;0.00;0.00;;;;;21.64;47.47;100982.00;6175271;23;45383;-78
2021/07/28 11:18:02;;;;;;;;;0.00;0.00;;;;;21.47;47.90;100972.81;6176802;23;45507;-78
2021/07/28 11:20:35;;;;;;;;;0.00;0.00;;;;;21.23;47.16;100930.38;6177918;23;45435;-78
2021/07/28 11:23:28;;;;;;;;;0.00;0.00;;;;;21.43;47.42;100973.84;6152025;23;45389;-78
2021/07/28 11:25:56;;;;;;;;;0.00;0.00;;;;;21.13;46.54;100936.88;6176494;23;46297;-78